Terminal Aerodrome Forecast
Issued by NWS Brownsville, TX

Home | Current Version | Previous Version | Text Only | Print | Product List | Glossary On
Versions: 1 2 3 4 5 6 7 8 9 10 11 12 13 14 15 16 17
781
FTUS44 KBRO 262332
TAFBRO
TAF
KBRO 262332Z 2700/2724 04012G20KT P6SM SKC
     FM270200 03008KT P6SM SKC
     FM271400 09010KT P6SM SCT030
     FM271600 13013G20KT P6SM SCT050=

USA.gov is the U.S. government's official web portal to all federal, state and local government web resources and services.